sensor_id;sensor_type;location;lat;lon;timestamp;P1;durP1;ratioP1;P2;durP2;ratioP2
58470;SDS011;44258;51.288;12.068;2023-07-29T00:00:56;2.95;;;1.60;;
58470;SDS011;44258;51.288;12.068;2023-07-29T00:03:43;2.72;;;1.50;;
58470;SDS011;44258;51.288;12.068;2023-07-29T00:06:30;5.43;;;1.90;;
58470;SDS011;44258;51.288;12.068;2023-07-29T00:09:18;2.75;;;1.50;;
58470;SDS011;44258;51.288;12.068;2023-07-29T00:12:05;4.20;;;1.40;;
58470;SDS011;44258;51.288;12.068;2023-07-29T00:14:52;2.17;;;1.50;;
58470;SDS011;44258;51.288;12.068;2023-07-29T00:17:39;2.22;;;1.40;;
58470;SDS011;44258;51.288;12.068;2023-07-29T00:20:26;2.30;;;1.40;;
58470;SDS011;44258;51.288;12.068;2023-07-29T00:23:12;4.43;;;1.52;;
58470;SDS011;44258;51.288;12.068;2023-07-29T00:26:02;1.75;;;1.40;;
58470;SDS011;44258;51.288;12.068;2023-07-29T00:28:49;1.45;;;1.20;;
58470;SDS011;44258;51.288;12.068;2023-07-29T00:31:36;5.55;;;1.70;;
58470;SDS011;44258;51.288;12.068;2023-07-29T00:34:23;3.58;;;1.70;;
58470;SDS011;44258;51.288;12.068;2023-07-29T00:37:10;3.30;;;1.60;;
58470;SDS011;44258;51.288;12.068;2023-07-29T00:39:57;2.85;;;1.60;;
58470;SDS011;44258;51.288;12.068;2023-07-29T00:42:46;1.73;;;1.35;;
58470;SDS011;44258;51.288;12.068;2023-07-29T00:45:32;2.60;;;1.50;;
58470;SDS011;44258;51.288;12.068;2023-07-29T00:48:20;2.08;;;1.50;;
58470;SDS011;44258;51.288;12.068;2023-07-29T00:51:07;3.58;;;1.75;;
58470;SDS011;44258;51.288;12.068;2023-07-29T00:53:54;2.38;;;1.60;;
58470;SDS011;44258;51.288;12.068;2023-07-29T00:56:41;5.18;;;1.70;;
58470;SDS011;44258;51.288;12.068;2023-07-29T00:59:29;3.22;;;1.83;;
58470;SDS011;44258;51.288;12.068;2023-07-29T01:02:17;3.35;;;1.90;;
58470;SDS011;44258;51.288;12.068;2023-07-29T01:05:06;2.90;;;1.90;;
58470;SDS011;44258;51.288;12.068;2023-07-29T01:07:55;3.10;;;1.58;;
58470;SDS011;44258;51.288;12.068;2023-07-29T01:10:50;2.50;;;1.60;;
58470;SDS011;44258;51.288;12.068;2023-07-29T01:13:46;2.42;;;1.65;;
58470;SDS011;44258;51.288;12.068;2023-07-29T01:16:41;2.78;;;1.60;;
58470;SDS011;44258;51.288;12.068;2023-07-29T01:19:43;4.50;;;1.60;;
58470;SDS011;44258;51.288;12.068;2023-07-29T01:22:39;2.73;;;1.83;;
58470;SDS011;44258;51.288;12.068;2023-07-29T01:25:28;3.28;;;1.60;;
58470;SDS011;44258;51.288;12.068;2023-07-29T01:28:15;3.47;;;1.90;;
58470;SDS011;44258;51.288;12.068;2023-07-29T01:31:03;3.15;;;1.60;;
58470;SDS011;44258;51.288;12.068;2023-07-29T01:34:01;2.83;;;1.73;;
58470;SDS011;44258;51.288;12.068;2023-07-29T01:36:56;2.97;;;1.80;;
58470;SDS011;44258;51.288;12.068;2023-07-29T01:39:47;2.95;;;1.58;;
58470;SDS011;44258;51.288;12.068;2023-07-29T01:42:38;4.45;;;2.10;;
58470;SDS011;44258;51.288;12.068;2023-07-29T01:45:25;5.00;;;1.58;;
58470;SDS011;44258;51.288;12.068;2023-07-29T01:48:12;2.70;;;1.70;;
58470;SDS011;44258;51.288;12.068;2023-07-29T01:53:47;3.15;;;1.60;;
58470;SDS011;44258;51.288;12.068;2023-07-29T01:56:34;2.50;;;1.60;;
58470;SDS011;44258;51.288;12.068;2023-07-29T01:59:23;3.65;;;1.85;;
58470;SDS011;44258;51.288;12.068;2023-07-29T02:02:11;2.95;;;1.70;;
58470;SDS011;44258;51.288;12.068;2023-07-29T02:04:58;3.42;;;1.80;;
58470;SDS011;44258;51.288;12.068;2023-07-29T02:07:45;2.38;;;1.52;;
58470;SDS011;44258;51.288;12.068;2023-07-29T02:10:32;3.53;;;1.85;;
58470;SDS011;44258;51.288;12.068;2023-07-29T02:13:19;3.60;;;1.83;;
58470;SDS011;44258;51.288;12.068;2023-07-29T02:16:07;2.88;;;1.70;;
58470;SDS011;44258;51.288;12.068;2023-07-29T02:18:54;3.88;;;1.90;;
58470;SDS011;44258;51.288;12.068;2023-07-29T02:21:41;3.10;;;1.88;;
58470;SDS011;44258;51.288;12.068;2023-07-29T02:24:28;2.88;;;1.70;;
58470;SDS011;44258;51.288;12.068;2023-07-29T02:27:15;4.43;;;2.00;;
58470;SDS011;44258;51.288;12.068;2023-07-29T02:30:02;3.45;;;1.90;;
58470;SDS011;44258;51.288;12.068;2023-07-29T02:32:51;3.47;;;1.90;;
58470;SDS011;44258;51.288;12.068;2023-07-29T02:35:40;4.63;;;2.00;;
58470;SDS011;44258;51.288;12.068;2023-07-29T02:38:28;3.92;;;1.88;;
58470;SDS011;44258;51.288;12.068;2023-07-29T02:44:01;2.87;;;1.77;;
58470;SDS011;44258;51.288;12.068;2023-07-29T02:46:48;3.58;;;1.83;;
58470;SDS011;44258;51.288;12.068;2023-07-29T02:49:39;2.80;;;1.90;;
58470;SDS011;44258;51.288;12.068;2023-07-29T02:52:25;5.28;;;2.15;;
58470;SDS011;44258;51.288;12.068;2023-07-29T02:55:12;5.40;;;2.30;;
58470;SDS011;44258;51.288;12.068;2023-07-29T02:57:59;3.65;;;1.85;;
58470;SDS011;44258;51.288;12.068;2023-07-29T03:00:46;3.50;;;1.85;;
58470;SDS011;44258;51.288;12.068;2023-07-29T03:03:34;4.18;;;2.13;;
58470;SDS011;44258;51.288;12.068;2023-07-29T03:06:23;4.93;;;2.20;;
58470;SDS011;44258;51.288;12.068;2023-07-29T03:09:10;4.13;;;2.20;;
58470;SDS011;44258;51.288;12.068;2023-07-29T03:14:47;3.72;;;2.00;;
58470;SDS011;44258;51.288;12.068;2023-07-29T03:17:34;3.92;;;1.95;;
58470;SDS011;44258;51.288;12.068;2023-07-29T03:20:21;3.47;;;1.90;;
58470;SDS011;44258;51.288;12.068;2023-07-29T03:25:56;3.72;;;2.10;;
58470;SDS011;44258;51.288;12.068;2023-07-29T03:28:44;4.15;;;2.00;;
58470;SDS011;44258;51.288;12.068;2023-07-29T03:31:30;3.97;;;2.33;;
58470;SDS011;44258;51.288;12.068;2023-07-29T03:34:17;4.50;;;2.10;;
58470;SDS011;44258;51.288;12.068;2023-07-29T03:39:52;3.83;;;2.15;;
58470;SDS011;44258;51.288;12.068;2023-07-29T03:42:39;3.83;;;2.15;;
58470;SDS011;44258;51.288;12.068;2023-07-29T03:45:26;6.10;;;2.30;;
58470;SDS011;44258;51.288;12.068;2023-07-29T03:50:59;5.28;;;2.38;;
58470;SDS011;44258;51.288;12.068;2023-07-29T03:53:46;3.70;;;2.08;;
58470;SDS011;44258;51.288;12.068;2023-07-29T03:56:35;3.75;;;2.30;;
58470;SDS011;44258;51.288;12.068;2023-07-29T03:59:21;3.72;;;2.10;;
58470;SDS011;44258;51.288;12.068;2023-07-29T04:02:09;3.70;;;2.13;;
58470;SDS011;44258;51.288;12.068;2023-07-29T04:04:55;3.78;;;2.20;;
58470;SDS011;44258;51.288;12.068;2023-07-29T04:10:29;3.90;;;2.10;;
58470;SDS011;44258;51.288;12.068;2023-07-29T04:13:18;3.47;;;1.95;;
58470;SDS011;44258;51.288;12.068;2023-07-29T04:16:05;5.30;;;2.40;;
58470;SDS011;44258;51.288;12.068;2023-07-29T04:18:52;4.07;;;2.40;;
58470;SDS011;44258;51.288;12.068;2023-07-29T04:21:39;5.15;;;2.80;;
58470;SDS011;44258;51.288;12.068;2023-07-29T04:24:28;3.35;;;2.15;;
58470;SDS011;44258;51.288;12.068;2023-07-29T04:27:14;3.55;;;1.95;;
58470;SDS011;44258;51.288;12.068;2023-07-29T04:30:03;5.00;;;2.20;;
58470;SDS011;44258;51.288;12.068;2023-07-29T04:32:50;3.88;;;2.17;;
58470;SDS011;44258;51.288;12.068;2023-07-29T04:35:37;4.88;;;2.40;;
58470;SDS011;44258;51.288;12.068;2023-07-29T04:38:30;4.97;;;2.00;;
58470;SDS011;44258;51.288;12.068;2023-07-29T04:41:18;4.38;;;2.15;;
58470;SDS011;44258;51.288;12.068;2023-07-29T04:44:05;4.05;;;2.13;;
58470;SDS011;44258;51.288;12.068;2023-07-29T04:46:53;8.40;;;2.63;;
58470;SDS011;44258;51.288;12.068;2023-07-29T04:49:40;4.28;;;2.20;;
58470;SDS011;44258;51.288;12.068;2023-07-29T04:55:14;3.47;;;1.98;;
58470;SDS011;44258;51.288;12.068;2023-07-29T04:58:01;3.97;;;2.10;;
58470;SDS011;44258;51.288;12.068;2023-07-29T05:00:48;3.55;;;2.20;;
58470;SDS011;44258;51.288;12.068;2023-07-29T05:03:36;3.63;;;2.20;;
58470;SDS011;44258;51.288;12.068;2023-07-29T05:06:25;5.53;;;2.38;;
58470;SDS011;44258;51.288;12.068;2023-07-29T05:09:12;3.50;;;2.28;;
58470;SDS011;44258;51.288;12.068;2023-07-29T05:12:00;3.72;;;2.10;;
58470;SDS011;44258;51.288;12.068;2023-07-29T05:14:47;4.38;;;2.33;;
58470;SDS011;44258;51.288;12.068;2023-07-29T05:17:34;3.83;;;2.30;;
58470;SDS011;44258;51.288;12.068;2023-07-29T05:20:22;4.30;;;2.47;;
58470;SDS011;44258;51.288;12.068;2023-07-29T05:23:09;5.32;;;2.13;;
58470;SDS011;44258;51.288;12.068;2023-07-29T05:25:56;4.47;;;2.35;;
58470;SDS011;44258;51.288;12.068;2023-07-29T05:28:43;3.90;;;2.20;;
58470;SDS011;44258;51.288;12.068;2023-07-29T05:31:30;4.38;;;2.20;;
58470;SDS011;44258;51.288;12.068;2023-07-29T05:34:17;5.30;;;2.17;;
58470;SDS011;44258;51.288;12.068;2023-07-29T05:37:06;3.92;;;2.22;;
58470;SDS011;44258;51.288;12.068;2023-07-29T05:39:52;3.97;;;2.25;;
58470;SDS011;44258;51.288;12.068;2023-07-29T05:42:39;3.58;;;2.17;;
58470;SDS011;44258;51.288;12.068;2023-07-29T05:45:26;3.65;;;2.13;;
58470;SDS011;44258;51.288;12.068;2023-07-29T05:48:13;3.95;;;2.25;;
58470;SDS011;44258;51.288;12.068;2023-07-29T05:51:00;4.78;;;2.30;;
58470;SDS011;44258;51.288;12.068;2023-07-29T05:53:48;4.30;;;2.17;;
58470;SDS011;44258;51.288;12.068;2023-07-29T05:56:35;3.90;;;2.20;;
58470;SDS011;44258;51.288;12.068;2023-07-29T05:59:22;3.22;;;2.10;;
58470;SDS011;44258;51.288;12.068;2023-07-29T06:02:09;5.43;;;2.25;;
58470;SDS011;44258;51.288;12.068;2023-07-29T06:04:56;4.40;;;2.10;;
58470;SDS011;44258;51.288;12.068;2023-07-29T06:07:43;3.90;;;2.30;;
58470;SDS011;44258;51.288;12.068;2023-07-29T06:10:31;4.60;;;2.00;;
58470;SDS011;44258;51.288;12.068;2023-07-29T06:13:18;4.25;;;2.10;;
58470;SDS011;44258;51.288;12.068;2023-07-29T06:16:05;3.75;;;1.90;;
58470;SDS011;44258;51.288;12.068;2023-07-29T06:18:52;3.70;;;2.10;;
58470;SDS011;44258;51.288;12.068;2023-07-29T06:21:39;4.20;;;2.00;;
58470;SDS011;44258;51.288;12.068;2023-07-29T06:24:26;3.53;;;1.98;;
58470;SDS011;44258;51.288;12.068;2023-07-29T06:27:14;3.17;;;2.00;;
58470;SDS011;44258;51.288;12.068;2023-07-29T06:30:01;4.00;;;2.38;;
58470;SDS011;44258;51.288;12.068;2023-07-29T06:32:48;3.50;;;2.00;;
58470;SDS011;44258;51.288;12.068;2023-07-29T06:35:35;5.35;;;2.22;;
58470;SDS011;44258;51.288;12.068;2023-07-29T06:38:22;2.33;;;1.65;;
58470;SDS011;44258;51.288;12.068;2023-07-29T06:41:09;3.90;;;2.05;;
58470;SDS011;44258;51.288;12.068;2023-07-29T06:43:57;3.08;;;1.90;;
58470;SDS011;44258;51.288;12.068;2023-07-29T06:46:44;3.33;;;1.85;;
58470;SDS011;44258;51.288;12.068;2023-07-29T06:49:31;4.43;;;2.08;;
58470;SDS011;44258;51.288;12.068;2023-07-29T06:52:18;5.15;;;2.00;;
58470;SDS011;44258;51.288;12.068;2023-07-29T06:55:05;4.13;;;1.92;;
58470;SDS011;44258;51.288;12.068;2023-07-29T06:57:52;4.45;;;2.10;;
58470;SDS011;44258;51.288;12.068;2023-07-29T07:00:41;2.42;;;1.90;;
58470;SDS011;44258;51.288;12.068;2023-07-29T07:03:27;2.67;;;1.90;;
58470;SDS011;44258;51.288;12.068;2023-07-29T07:06:14;3.40;;;2.17;;
58470;SDS011;44258;51.288;12.068;2023-07-29T07:09:01;2.95;;;1.90;;
58470;SDS011;44258;51.288;12.068;2023-07-29T07:11:48;2.72;;;2.00;;
58470;SDS011;44258;51.288;12.068;2023-07-29T07:14:35;2.67;;;1.90;;
58470;SDS011;44258;51.288;12.068;2023-07-29T07:17:23;3.10;;;2.03;;
58470;SDS011;44258;51.288;12.068;2023-07-29T07:20:10;4.18;;;2.20;;
58470;SDS011;44258;51.288;12.068;2023-07-29T07:22:58;5.10;;;2.47;;
58470;SDS011;44258;51.288;12.068;2023-07-29T07:25:45;5.00;;;2.03;;
58470;SDS011;44258;51.288;12.068;2023-07-29T07:28:32;3.42;;;2.03;;
58470;SDS011;44258;51.288;12.068;2023-07-29T07:31:19;3.47;;;2.10;;
58470;SDS011;44258;51.288;12.068;2023-07-29T07:34:08;3.42;;;2.40;;
58470;SDS011;44258;51.288;12.068;2023-07-29T07:36:55;3.63;;;2.08;;
58470;SDS011;44258;51.288;12.068;2023-07-29T07:39:42;3.50;;;1.98;;
58470;SDS011;44258;51.288;12.068;2023-07-29T07:42:29;3.00;;;1.90;;
58470;SDS011;44258;51.288;12.068;2023-07-29T07:45:16;3.42;;;2.00;;
58470;SDS011;44258;51.288;12.068;2023-07-29T07:48:03;3.25;;;2.08;;
58470;SDS011;44258;51.288;12.068;2023-07-29T07:50:52;3.28;;;2.00;;
58470;SDS011;44258;51.288;12.068;2023-07-29T07:53:38;3.47;;;1.92;;
58470;SDS011;44258;51.288;12.068;2023-07-29T07:56:26;4.03;;;2.10;;
58470;SDS011;44258;51.288;12.068;2023-07-29T07:59:12;2.65;;;1.80;;
58470;SDS011;44258;51.288;12.068;2023-07-29T08:01:59;2.55;;;1.80;;
58470;SDS011;44258;51.288;12.068;2023-07-29T08:04:46;3.60;;;1.80;;
58470;SDS011;44258;51.288;12.068;2023-07-29T08:07:35;3.33;;;1.92;;
58470;SDS011;44258;51.288;12.068;2023-07-29T08:10:21;3.50;;;2.00;;
58470;SDS011;44258;51.288;12.068;2023-07-29T08:13:08;3.17;;;1.88;;
58470;SDS011;44258;51.288;12.068;2023-07-29T08:15:55;3.88;;;1.90;;
58470;SDS011;44258;51.288;12.068;2023-07-29T08:18:42;3.75;;;1.80;;
58470;SDS011;44258;51.288;12.068;2023-07-29T08:21:29;3.63;;;1.80;;
58470;SDS011;44258;51.288;12.068;2023-07-29T08:24:17;3.15;;;1.60;;
58470;SDS011;44258;51.288;12.068;2023-07-29T08:27:05;3.60;;;1.75;;
58470;SDS011;44258;51.288;12.068;2023-07-29T08:29:53;2.63;;;1.70;;
58470;SDS011;44258;51.288;12.068;2023-07-29T08:32:41;4.13;;;1.77;;
58470;SDS011;44258;51.288;12.068;2023-07-29T08:35:30;2.05;;;1.40;;
58470;SDS011;44258;51.288;12.068;2023-07-29T08:38:17;2.50;;;1.70;;
58470;SDS011;44258;51.288;12.068;2023-07-29T08:41:06;2.53;;;1.80;;
58470;SDS011;44258;51.288;12.068;2023-07-29T08:44:02;3.28;;;1.77;;
58470;SDS011;44258;51.288;12.068;2023-07-29T08:46:56;3.47;;;1.80;;
58470;SDS011;44258;51.288;12.068;2023-07-29T08:49:43;2.53;;;1.40;;
58470;SDS011;44258;51.288;12.068;2023-07-29T08:52:31;2.88;;;1.75;;
58470;SDS011;44258;51.288;12.068;2023-07-29T08:55:20;2.83;;;1.70;;
58470;SDS011;44258;51.288;12.068;2023-07-29T08:58:09;2.00;;;1.60;;
58470;SDS011;44258;51.288;12.068;2023-07-29T09:00:57;2.13;;;1.50;;
58470;SDS011;44258;51.288;12.068;2023-07-29T09:03:44;2.85;;;1.67;;
58470;SDS011;44258;51.288;12.068;2023-07-29T09:06:31;3.25;;;1.60;;
58470;SDS011;44258;51.288;12.068;2023-07-29T09:09:19;2.50;;;1.33;;
58470;SDS011;44258;51.288;12.068;2023-07-29T09:12:08;3.55;;;1.60;;
58470;SDS011;44258;51.288;12.068;2023-07-29T09:14:58;1.95;;;1.50;;
58470;SDS011;44258;51.288;12.068;2023-07-29T09:17:45;1.80;;;1.50;;
58470;SDS011;44258;51.288;12.068;2023-07-29T09:20:33;2.17;;;1.60;;
58470;SDS011;44258;51.288;12.068;2023-07-29T09:23:20;1.85;;;1.35;;
58470;SDS011;44258;51.288;12.068;2023-07-29T09:26:07;2.08;;;1.48;;
58470;SDS011;44258;51.288;12.068;2023-07-29T09:28:55;1.88;;;1.35;;
58470;SDS011;44258;51.288;12.068;2023-07-29T09:31:45;1.30;;;1.20;;
58470;SDS011;44258;51.288;12.068;2023-07-29T09:34:31;1.42;;;1.17;;
58470;SDS011;44258;51.288;12.068;2023-07-29T09:37:20;1.88;;;1.20;;
58470;SDS011;44258;51.288;12.068;2023-07-29T09:40:12;1.90;;;1.30;;
58470;SDS011;44258;51.288;12.068;2023-07-29T09:43:00;1.17;;;1.02;;
58470;SDS011;44258;51.288;12.068;2023-07-29T09:45:47;1.38;;;1.05;;
58470;SDS011;44258;51.288;12.068;2023-07-29T09:48:37;1.70;;;1.17;;
58470;SDS011;44258;51.288;12.068;2023-07-29T09:51:24;1.65;;;1.20;;
58470;SDS011;44258;51.288;12.068;2023-07-29T09:54:12;1.90;;;1.27;;
58470;SDS011;44258;51.288;12.068;2023-07-29T09:57:00;2.58;;;1.30;;
58470;SDS011;44258;51.288;12.068;2023-07-29T09:59:55;2.28;;;1.23;;
58470;SDS011;44258;51.288;12.068;2023-07-29T10:02:42;3.45;;;1.25;;
58470;SDS011;44258;51.288;12.068;2023-07-29T10:05:31;1.23;;;1.08;;
58470;SDS011;44258;51.288;12.068;2023-07-29T10:08:20;1.75;;;1.10;;
58470;SDS011;44258;51.288;12.068;2023-07-29T10:11:10;1.90;;;1.40;;
58470;SDS011;44258;51.288;12.068;2023-07-29T10:14:00;1.67;;;1.30;;
58470;SDS011;44258;51.288;12.068;2023-07-29T10:16:50;2.75;;;1.30;;
58470;SDS011;44258;51.288;12.068;2023-07-29T10:19:37;2.05;;;1.30;;
58470;SDS011;44258;51.288;12.068;2023-07-29T10:22:28;2.35;;;1.25;;
58470;SDS011;44258;51.288;12.068;2023-07-29T10:25:21;3.05;;;1.70;;
58470;SDS011;44258;51.288;12.068;2023-07-29T10:28:09;2.15;;;1.40;;
58470;SDS011;44258;51.288;12.068;2023-07-29T10:30:58;2.20;;;1.30;;
58470;SDS011;44258;51.288;12.068;2023-07-29T10:33:46;4.30;;;1.50;;
58470;SDS011;44258;51.288;12.068;2023-07-29T10:36:33;2.30;;;1.45;;
58470;SDS011;44258;51.288;12.068;2023-07-29T10:39:21;2.30;;;1.52;;
58470;SDS011;44258;51.288;12.068;2023-07-29T10:42:11;2.97;;;1.63;;
58470;SDS011;44258;51.288;12.068;2023-07-29T10:44:58;2.35;;;1.58;;
58470;SDS011;44258;51.288;12.068;2023-07-29T10:47:45;2.55;;;1.50;;
58470;SDS011;44258;51.288;12.068;2023-07-29T10:50:32;2.78;;;1.70;;
58470;SDS011;44258;51.288;12.068;2023-07-29T10:53:18;2.50;;;1.60;;
58470;SDS011;44258;51.288;12.068;2023-07-29T10:56:08;3.05;;;1.65;;
58470;SDS011;44258;51.288;12.068;2023-07-29T10:58:55;4.85;;;1.70;;
58470;SDS011;44258;51.288;12.068;2023-07-29T11:01:50;2.70;;;1.80;;
58470;SDS011;44258;51.288;12.068;2023-07-29T11:04:45;2.63;;;1.60;;
58470;SDS011;44258;51.288;12.068;2023-07-29T11:07:42;2.22;;;1.63;;
58470;SDS011;44258;51.288;12.068;2023-07-29T11:10:30;3.00;;;1.45;;
58470;SDS011;44258;51.288;12.068;2023-07-29T11:13:32;2.85;;;1.65;;
58470;SDS011;44258;51.288;12.068;2023-07-29T11:16:19;2.10;;;1.60;;
58470;SDS011;44258;51.288;12.068;2023-07-29T11:19:07;2.95;;;1.90;;
58470;SDS011;44258;51.288;12.068;2023-07-29T11:22:01;2.58;;;1.60;;
58470;SDS011;44258;51.288;12.068;2023-07-29T11:24:48;2.28;;;1.48;;
58470;SDS011;44258;51.288;12.068;2023-07-29T11:27:36;5.00;;;1.70;;
58470;SDS011;44258;51.288;12.068;2023-07-29T11:30:25;4.72;;;1.95;;
58470;SDS011;44258;51.288;12.068;2023-07-29T11:33:12;4.35;;;1.70;;
58470;SDS011;44258;51.288;12.068;2023-07-29T11:35:59;2.55;;;1.60;;
58470;SDS011;44258;51.288;12.068;2023-07-29T11:38:46;3.15;;;1.70;;
58470;SDS011;44258;51.288;12.068;2023-07-29T11:41:33;1.63;;;1.50;;
58470;SDS011;44258;51.288;12.068;2023-07-29T11:44:20;2.22;;;1.52;;
58470;SDS011;44258;51.288;12.068;2023-07-29T11:47:08;2.90;;;1.75;;
58470;SDS011;44258;51.288;12.068;2023-07-29T11:49:58;2.90;;;1.77;;
58470;SDS011;44258;51.288;12.068;2023-07-29T11:52:46;2.42;;;1.70;;
58470;SDS011;44258;51.288;12.068;2023-07-29T11:55:33;3.45;;;1.90;;
58470;SDS011;44258;51.288;12.068;2023-07-29T11:58:20;2.65;;;1.60;;
58470;SDS011;44258;51.288;12.068;2023-07-29T12:01:07;3.25;;;1.88;;
58470;SDS011;44258;51.288;12.068;2023-07-29T12:03:57;3.83;;;1.85;;
58470;SDS011;44258;51.288;12.068;2023-07-29T12:06:45;3.90;;;2.00;;
58470;SDS011;44258;51.288;12.068;2023-07-29T12:09:35;3.80;;;1.98;;
58470;SDS011;44258;51.288;12.068;2023-07-29T12:12:23;3.45;;;1.77;;
58470;SDS011;44258;51.288;12.068;2023-07-29T12:15:09;2.30;;;1.60;;
58470;SDS011;44258;51.288;12.068;2023-07-29T12:17:57;2.53;;;1.60;;
58470;SDS011;44258;51.288;12.068;2023-07-29T12:20:45;2.17;;;1.58;;
58470;SDS011;44258;51.288;12.068;2023-07-29T12:23:32;2.20;;;1.50;;
58470;SDS011;44258;51.288;12.068;2023-07-29T12:26:19;2.72;;;1.80;;
58470;SDS011;44258;51.288;12.068;2023-07-29T12:29:16;4.75;;;1.63;;
58470;SDS011;44258;51.288;12.068;2023-07-29T12:32:05;3.83;;;1.75;;
58470;SDS011;44258;51.288;12.068;2023-07-29T12:34:53;2.25;;;1.50;;
58470;SDS011;44258;51.288;12.068;2023-07-29T12:37:41;2.55;;;1.48;;
58470;SDS011;44258;51.288;12.068;2023-07-29T12:40:28;2.72;;;1.70;;
58470;SDS011;44258;51.288;12.068;2023-07-29T12:43:15;4.10;;;1.70;;
58470;SDS011;44258;51.288;12.068;2023-07-29T12:46:02;1.92;;;1.50;;
58470;SDS011;44258;51.288;12.068;2023-07-29T12:48:49;3.38;;;1.67;;
58470;SDS011;44258;51.288;12.068;2023-07-29T12:51:37;2.58;;;1.60;;
58470;SDS011;44258;51.288;12.068;2023-07-29T12:54:25;2.83;;;1.70;;
58470;SDS011;44258;51.288;12.068;2023-07-29T12:57:12;2.22;;;1.60;;
58470;SDS011;44258;51.288;12.068;2023-07-29T12:59:59;3.95;;;1.70;;
58470;SDS011;44258;51.288;12.068;2023-07-29T13:02:46;2.13;;;1.50;;
58470;SDS011;44258;51.288;12.068;2023-07-29T13:05:33;2.60;;;1.60;;
58470;SDS011;44258;51.288;12.068;2023-07-29T13:08:20;3.17;;;1.67;;
58470;SDS011;44258;51.288;12.068;2023-07-29T13:11:10;4.38;;;1.70;;
58470;SDS011;44258;51.288;12.068;2023-07-29T13:13:57;3.50;;;1.63;;
58470;SDS011;44258;51.288;12.068;2023-07-29T13:16:44;2.28;;;1.50;;
58470;SDS011;44258;51.288;12.068;2023-07-29T13:19:30;3.25;;;1.70;;
58470;SDS011;44258;51.288;12.068;2023-07-29T13:22:19;2.17;;;1.45;;
58470;SDS011;44258;51.288;12.068;2023-07-29T13:25:06;2.92;;;1.75;;
58470;SDS011;44258;51.288;12.068;2023-07-29T13:27:55;3.38;;;1.80;;
58470;SDS011;44258;51.288;12.068;2023-07-29T13:30:42;4.40;;;1.85;;
58470;SDS011;44258;51.288;12.068;2023-07-29T13:33:29;3.03;;;1.90;;
58470;SDS011;44258;51.288;12.068;2023-07-29T13:36:19;3.65;;;1.95;;
58470;SDS011;44258;51.288;12.068;2023-07-29T13:39:06;2.10;;;1.42;;
58470;SDS011;44258;51.288;12.068;2023-07-29T13:41:53;2.92;;;1.85;;
58470;SDS011;44258;51.288;12.068;2023-07-29T13:44:42;3.22;;;1.50;;
58470;SDS011;44258;51.288;12.068;2023-07-29T13:47:29;2.85;;;1.80;;
58470;SDS011;44258;51.288;12.068;2023-07-29T13:50:17;3.33;;;1.75;;
58470;SDS011;44258;51.288;12.068;2023-07-29T13:53:04;2.75;;;1.70;;
58470;SDS011;44258;51.288;12.068;2023-07-29T13:55:51;3.10;;;1.85;;
58470;SDS011;44258;51.288;12.068;2023-07-29T13:58:38;4.00;;;2.25;;
58470;SDS011;44258;51.288;12.068;2023-07-29T14:01:26;2.55;;;1.65;;
58470;SDS011;44258;51.288;12.068;2023-07-29T14:04:13;4.30;;;2.15;;
58470;SDS011;44258;51.288;12.068;2023-07-29T14:07:00;3.03;;;1.70;;
58470;SDS011;44258;51.288;12.068;2023-07-29T14:09:47;4.78;;;1.98;;
58470;SDS011;44258;51.288;12.068;2023-07-29T14:12:34;4.55;;;1.90;;
58470;SDS011;44258;51.288;12.068;2023-07-29T14:15:21;2.85;;;1.70;;
58470;SDS011;44258;51.288;12.068;2023-07-29T14:18:09;4.05;;;1.80;;
58470;SDS011;44258;51.288;12.068;2023-07-29T14:20:57;4.32;;;1.90;;
58470;SDS011;44258;51.288;12.068;2023-07-29T14:23:44;4.00;;;1.90;;
58470;SDS011;44258;51.288;12.068;2023-07-29T14:26:31;3.30;;;1.55;;
58470;SDS011;44258;51.288;12.068;2023-07-29T14:29:18;5.05;;;2.33;;
58470;SDS011;44258;51.288;12.068;2023-07-29T14:32:05;2.67;;;1.80;;
58470;SDS011;44258;51.288;12.068;2023-07-29T14:34:54;4.88;;;2.10;;
58470;SDS011;44258;51.288;12.068;2023-07-29T14:37:41;4.28;;;1.88;;
58470;SDS011;44258;51.288;12.068;2023-07-29T14:40:28;4.80;;;2.08;;
58470;SDS011;44258;51.288;12.068;2023-07-29T14:43:15;4.50;;;1.80;;
58470;SDS011;44258;51.288;12.068;2023-07-29T14:46:02;4.32;;;2.08;;
58470;SDS011;44258;51.288;12.068;2023-07-29T14:48:49;5.25;;;1.75;;
58470;SDS011;44258;51.288;12.068;2023-07-29T14:51:38;6.30;;;2.13;;
58470;SDS011;44258;51.288;12.068;2023-07-29T14:54:24;5.45;;;2.10;;
58470;SDS011;44258;51.288;12.068;2023-07-29T14:57:11;5.18;;;2.40;;
58470;SDS011;44258;51.288;12.068;2023-07-29T14:59:58;9.40;;;2.60;;
58470;SDS011;44258;51.288;12.068;2023-07-29T15:02:45;5.85;;;2.45;;
58470;SDS011;44258;51.288;12.068;2023-07-29T15:05:32;6.95;;;2.50;;
58470;SDS011;44258;51.288;12.068;2023-07-29T15:08:20;7.00;;;2.60;;
58470;SDS011;44258;51.288;12.068;2023-07-29T15:11:07;6.32;;;2.55;;
58470;SDS011;44258;51.288;12.068;2023-07-29T15:13:54;5.82;;;2.50;;
58470;SDS011;44258;51.288;12.068;2023-07-29T15:16:41;5.32;;;2.35;;
58470;SDS011;44258;51.288;12.068;2023-07-29T15:19:28;4.40;;;2.20;;
58470;SDS011;44258;51.288;12.068;2023-07-29T15:22:15;6.13;;;2.70;;
58470;SDS011;44258;51.288;12.068;2023-07-29T15:25:04;6.50;;;2.40;;
58470;SDS011;44258;51.288;12.068;2023-07-29T15:27:51;5.65;;;2.35;;
58470;SDS011;44258;51.288;12.068;2023-07-29T15:30:38;7.35;;;2.50;;
58470;SDS011;44258;51.288;12.068;2023-07-29T15:33:25;5.63;;;2.15;;
58470;SDS011;44258;51.288;12.068;2023-07-29T15:36:12;5.50;;;2.15;;
58470;SDS011;44258;51.288;12.068;2023-07-29T15:38:59;6.53;;;2.47;;
58470;SDS011;44258;51.288;12.068;2023-07-29T15:41:48;5.10;;;1.98;;
58470;SDS011;44258;51.288;12.068;2023-07-29T15:44:35;6.53;;;2.17;;
58470;SDS011;44258;51.288;12.068;2023-07-29T15:47:22;5.05;;;2.40;;
58470;SDS011;44258;51.288;12.068;2023-07-29T15:50:10;5.63;;;2.35;;
58470;SDS011;44258;51.288;12.068;2023-07-29T15:52:57;5.40;;;2.33;;
58470;SDS011;44258;51.288;12.068;2023-07-29T15:55:44;7.13;;;2.40;;
58470;SDS011;44258;51.288;12.068;2023-07-29T15:58:32;6.05;;;2.50;;
58470;SDS011;44258;51.288;12.068;2023-07-29T16:01:19;6.28;;;2.35;;
58470;SDS011;44258;51.288;12.068;2023-07-29T16:04:06;5.72;;;2.50;;
58470;SDS011;44258;51.288;12.068;2023-07-29T16:06:53;6.05;;;2.22;;
58470;SDS011;44258;51.288;12.068;2023-07-29T16:09:40;5.60;;;2.20;;
58470;SDS011;44258;51.288;12.068;2023-07-29T16:12:27;5.53;;;2.13;;
58470;SDS011;44258;51.288;12.068;2023-07-29T16:15:16;5.28;;;2.60;;
58470;SDS011;44258;51.288;12.068;2023-07-29T16:18:03;6.30;;;2.30;;
58470;SDS011;44258;51.288;12.068;2023-07-29T16:20:50;8.32;;;2.47;;
58470;SDS011;44258;51.288;12.068;2023-07-29T16:23:38;5.75;;;2.25;;
58470;SDS011;44258;51.288;12.068;2023-07-29T16:26:25;4.07;;;2.10;;
58470;SDS011;44258;51.288;12.068;2023-07-29T16:29:12;5.22;;;2.42;;
58470;SDS011;44258;51.288;12.068;2023-07-29T16:32:00;8.02;;;2.17;;
58470;SDS011;44258;51.288;12.068;2023-07-29T16:34:47;5.40;;;2.42;;
58470;SDS011;44258;51.288;12.068;2023-07-29T16:37:34;6.15;;;2.10;;
58470;SDS011;44258;51.288;12.068;2023-07-29T16:40:21;5.95;;;2.33;;
58470;SDS011;44258;51.288;12.068;2023-07-29T16:43:08;3.78;;;2.13;;
58470;SDS011;44258;51.288;12.068;2023-07-29T16:45:55;6.28;;;2.35;;
58470;SDS011;44258;51.288;12.068;2023-07-29T16:48:44;5.22;;;2.10;;
58470;SDS011;44258;51.288;12.068;2023-07-29T16:51:31;4.82;;;2.58;;
58470;SDS011;44258;51.288;12.068;2023-07-29T16:54:18;5.53;;;2.30;;
58470;SDS011;44258;51.288;12.068;2023-07-29T16:57:05;4.80;;;2.35;;